createdAt,value
2022-11-25T00:01:45.024Z,4.50
2022-11-25T00:04:16.453Z,5.80
2022-11-25T00:06:46.858Z,5.60
2022-11-25T00:09:17.336Z,6.40
2022-11-25T00:11:47.896Z,4.50
2022-11-25T00:14:18.492Z,5.10
2022-11-25T00:16:49.084Z,5.70
2022-11-25T00:19:19.763Z,5.70
2022-11-25T00:21:50.450Z,5.10
2022-11-25T00:24:20.918Z,5.10
2022-11-25T00:26:51.455Z,4.90
2022-11-25T00:29:22.280Z,5.70
2022-11-25T00:31:52.953Z,4.90
2022-11-25T00:34:23.449Z,4.60
2022-11-25T00:36:54.301Z,5.50
2022-11-25T00:42:12.342Z,4.00
2022-11-25T00:44:43.206Z,4.80
2022-11-25T00:47:15.407Z,4.70
2022-11-25T00:49:48.287Z,5.00
2022-11-25T00:52:20.586Z,5.40
2022-11-25T00:54:52.177Z,4.20
2022-11-25T00:57:24.680Z,5.40
2022-11-25T00:59:55.235Z,4.30
2022-11-25T01:02:26.508Z,4.50
2022-11-25T01:04:58.313Z,4.20
2022-11-25T01:07:29.388Z,4.60
2022-11-25T01:09:59.821Z,5.20
2022-11-25T01:12:30.339Z,6.00
2022-11-25T01:15:00.842Z,4.60
2022-11-25T01:17:31.519Z,4.70
2022-11-25T01:20:03.703Z,4.90
2022-11-25T01:22:34.373Z,5.60
2022-11-25T01:25:07.006Z,5.40
2022-11-25T01:27:40.797Z,5.30
2022-11-25T01:30:12.852Z,4.50
2022-11-25T01:32:43.385Z,4.50
2022-11-25T01:35:14.253Z,3.40
2022-11-25T01:37:44.877Z,4.30
2022-11-25T01:40:15.656Z,4.70
2022-11-25T01:42:47.661Z,5.00
2022-11-25T01:45:35.743Z,4.90
2022-11-25T01:48:14.284Z,4.60
2022-11-25T01:50:45.435Z,4.80
2022-11-25T01:53:17.745Z,4.50
2022-11-25T01:55:53.606Z,5.00
2022-11-25T01:58:27.928Z,4.10
2022-11-25T02:00:58.886Z,5.40
2022-11-25T02:03:34.676Z,4.30
2022-11-25T02:06:11.815Z,4.50
2022-11-25T02:08:44.413Z,4.00
2022-11-25T02:11:15.944Z,5.40
2022-11-25T02:13:48.428Z,4.20
2022-11-25T02:16:19.196Z,4.30
2022-11-25T02:18:50.492Z,3.80
2022-11-25T02:21:26.904Z,3.80
2022-11-25T02:24:03.133Z,4.00
2022-11-25T02:26:33.973Z,4.20
2022-11-25T02:29:04.463Z,3.90
2022-11-25T02:31:35.116Z,4.00
2022-11-25T02:34:05.702Z,3.70
2022-11-25T02:36:37.785Z,3.80
2022-11-25T02:39:08.589Z,5.00
2022-11-25T02:41:43.459Z,4.20
2022-11-25T02:44:14.353Z,4.40
2022-11-25T02:46:45.041Z,4.00
2022-11-25T02:49:15.816Z,4.10
2022-11-25T02:51:47.777Z,4.50
2022-11-25T02:54:18.851Z,3.60
2022-11-25T02:56:52.059Z,4.10
2022-11-25T02:59:22.549Z,3.60
2022-11-25T03:01:53.137Z,4.20
2022-11-25T03:04:23.866Z,4.00
2022-11-25T03:06:54.381Z,4.50
2022-11-25T03:09:24.783Z,3.90
2022-11-25T03:12:13.076Z,4.60
2022-11-25T03:14:43.587Z,4.00
2022-11-25T03:17:15.732Z,3.80
2022-11-25T03:19:46.275Z,3.80
2022-11-25T03:22:16.741Z,4.20
2022-11-25T03:24:47.183Z,4.20
2022-11-25T03:27:18.052Z,4.70
2022-11-25T03:29:49.405Z,5.00
2022-11-25T03:32:19.894Z,4.70
2022-11-25T03:34:50.541Z,5.30
2022-11-25T03:37:21.190Z,4.00
2022-11-25T03:39:51.794Z,4.40
2022-11-25T03:42:22.203Z,4.80
2022-11-25T03:44:53.103Z,5.40
2022-11-25T03:47:23.850Z,4.10
2022-11-25T03:49:54.423Z,4.80
2022-11-25T03:52:25.195Z,5.30
2022-11-25T03:54:55.830Z,5.30
2022-11-25T03:57:30.030Z,5.10
2022-11-25T04:02:30.187Z,4.50
2022-11-25T04:05:00.813Z,4.60
2022-11-25T04:07:31.498Z,5.00
2022-11-25T04:10:02.466Z,6.00
2022-11-25T04:12:50.136Z,4.70
2022-11-25T04:15:23.730Z,5.30
2022-11-25T04:17:56.480Z,4.80
2022-11-25T04:20:27.423Z,5.10
2022-11-25T04:23:03.356Z,5.30
2022-11-25T04:25:35.402Z,4.00
2022-11-25T04:28:10.193Z,5.30
2022-11-25T04:30:41.342Z,5.40
2022-11-25T04:33:12.201Z,4.70
2022-11-25T04:35:42.839Z,5.70
2022-11-25T04:38:13.847Z,5.70
2022-11-25T04:40:44.496Z,5.40
2022-11-25T04:43:20.502Z,6.30
2022-11-25T04:46:13.577Z,5.10
2022-11-25T04:48:45.007Z,5.60
2022-11-25T04:51:18.541Z,5.50
2022-11-25T04:53:49.734Z,5.00
2022-11-25T04:56:21.292Z,5.30
2022-11-25T04:59:11.646Z,5.70
2022-11-25T05:01:48.727Z,6.10
2022-11-25T05:04:35.332Z,5.40
2022-11-25T05:07:06.341Z,6.00
2022-11-25T05:09:38.278Z,6.10
2022-11-25T05:12:16.255Z,5.10
2022-11-25T05:14:47.148Z,5.30
2022-11-25T05:17:19.405Z,4.80
2022-11-25T05:19:50.514Z,5.30
2022-11-25T05:22:24.182Z,5.50
2022-11-25T05:24:55.285Z,5.80
2022-11-25T05:27:27.050Z,4.90
2022-11-25T05:29:58.228Z,5.40
2022-11-25T05:32:28.950Z,5.70
2022-11-25T05:35:00.994Z,5.80
2022-11-25T05:37:31.701Z,5.70
2022-11-25T05:40:07.551Z,4.90
2022-11-25T05:42:40.979Z,5.40
2022-11-25T05:45:12.821Z,5.60
2022-11-25T05:47:45.819Z,5.10
2022-11-25T05:50:17.917Z,5.50
2022-11-25T05:53:06.524Z,5.20
2022-11-25T05:55:38.532Z,5.00
2022-11-25T05:58:13.260Z,4.70
2022-11-25T06:00:45.164Z,6.00
2022-11-25T06:03:15.713Z,5.70
2022-11-25T06:05:46.415Z,5.90
2022-11-25T06:08:17.394Z,5.70
2022-11-25T06:10:47.893Z,4.90
2022-11-25T06:13:18.345Z,5.30
2022-11-25T06:16:17.927Z,4.80
2022-11-25T06:18:49.201Z,4.70
2022-11-25T06:21:20.311Z,4.40
2022-11-25T06:24:02.270Z,4.80
2022-11-25T06:26:32.919Z,5.40
2022-11-25T06:29:03.531Z,4.60
2022-11-25T06:31:34.033Z,4.70
2022-11-25T06:34:13.060Z,4.70
2022-11-25T06:36:44.013Z,5.40
2022-11-25T06:39:14.468Z,5.10
2022-11-25T06:41:46.283Z,5.10
2022-11-25T06:44:17.256Z,5.30
2022-11-25T06:46:47.761Z,6.80
2022-11-25T06:49:18.492Z,6.80
2022-11-25T06:51:50.084Z,6.30
2022-11-25T06:54:20.732Z,7.40
2022-11-25T06:56:53.898Z,8.20
2022-11-25T06:59:24.389Z,7.00
2022-11-25T07:01:55.139Z,7.40
2022-11-25T07:04:25.621Z,7.70
2022-11-25T07:06:56.281Z,8.00
2022-11-25T07:09:26.891Z,8.60
2022-11-25T07:11:57.585Z,8.90
2022-11-25T07:14:28.384Z,6.40
2022-11-25T07:16:58.941Z,5.60
2022-11-25T07:19:33.252Z,7.10
2022-11-25T07:22:03.965Z,7.10
2022-11-25T07:24:35.295Z,6.90
2022-11-25T07:27:06.878Z,5.70
2022-11-25T07:32:29.591Z,5.50
2022-11-25T07:35:00.059Z,5.60
2022-11-25T07:37:30.810Z,5.70
2022-11-25T07:40:01.422Z,5.50
2022-11-25T07:42:32.301Z,6.30
2022-11-25T07:45:02.785Z,5.40
2022-11-25T07:47:48.695Z,5.60
2022-11-25T07:50:19.461Z,6.80
2022-11-25T07:52:50.046Z,5.70
2022-11-25T07:55:20.640Z,4.60
2022-11-25T07:57:51.075Z,5.00
2022-11-25T08:00:23.551Z,4.80
2022-11-25T08:02:54.645Z,4.50
2022-11-25T08:05:25.271Z,4.70
2022-11-25T08:07:56.064Z,5.00
2022-11-25T08:10:26.595Z,4.50
2022-11-25T08:12:57.216Z,6.90
2022-11-25T08:15:28.244Z,8.30
2022-11-25T08:17:58.913Z,5.40
2022-11-25T08:20:31.488Z,5.50
2022-11-25T08:23:02.930Z,4.20
2022-11-25T08:28:03.691Z,4.20
2022-11-25T08:30:37.421Z,3.60
2022-11-25T08:33:08.102Z,4.20
2022-11-25T08:35:38.880Z,4.60
2022-11-25T08:38:10.705Z,5.30
2022-11-25T08:40:45.466Z,3.80
2022-11-25T08:43:17.253Z,3.80
2022-11-25T08:45:47.580Z,3.80
2022-11-25T08:48:19.936Z,3.80
2022-11-25T08:50:53.704Z,4.10
2022-11-25T08:53:24.780Z,3.80
2022-11-25T08:55:55.428Z,3.80
2022-11-25T08:58:26.055Z,3.70
2022-11-25T09:00:56.809Z,4.80
2022-11-25T09:03:27.431Z,3.80
2022-11-25T09:05:58.095Z,6.70
2022-11-25T09:08:28.797Z,5.70
2022-11-25T09:10:59.864Z,4.50
2022-11-25T09:13:30.755Z,4.20
2022-11-25T09:16:02.190Z,3.90
2022-11-25T09:21:10.968Z,4.80
2022-11-25T09:23:42.451Z,5.00
2022-11-25T09:26:22.181Z,5.20
2022-11-25T09:28:52.704Z,4.90
2022-11-25T09:31:23.968Z,5.10
2022-11-25T09:36:24.871Z,6.10
2022-11-25T09:38:55.489Z,5.50
2022-11-25T09:42:06.460Z,5.80
2022-11-25T09:45:06.609Z,4.70
2022-11-25T09:47:58.285Z,5.60
2022-11-25T09:50:36.720Z,5.10
2022-11-25T09:53:23.458Z,5.40
2022-11-25T09:56:03.303Z,5.20
2022-11-25T09:58:37.300Z,4.90
2022-11-25T10:01:15.543Z,5.30
2022-11-25T10:03:50.531Z,4.80
2022-11-25T10:06:26.518Z,5.40
2022-11-25T10:09:00.156Z,6.90
2022-11-25T10:11:43.922Z,5.80
2022-11-25T10:14:22.720Z,6.00
2022-11-25T10:16:57.965Z,6.10
2022-11-25T10:19:38.163Z,6.50
2022-11-25T10:22:22.524Z,5.90
2022-11-25T10:24:55.850Z,5.70
2022-11-25T10:27:37.434Z,5.60
2022-11-25T10:32:50.502Z,6.00
2022-11-25T10:35:30.824Z,6.00
2022-11-25T10:38:04.374Z,5.70
2022-11-25T10:40:35.072Z,5.70
2022-11-25T10:43:13.836Z,6.30
2022-11-25T10:45:52.542Z,6.30
2022-11-25T10:48:45.666Z,5.10
2022-11-25T10:51:31.409Z,7.30
2022-11-25T10:54:26.949Z,7.30
2022-11-25T10:57:01.108Z,6.40
2022-11-25T10:59:34.405Z,9.40
2022-11-25T11:02:22.276Z,7.00
2022-11-25T11:04:59.605Z,5.90
2022-11-25T11:07:33.161Z,6.40
2022-11-25T11:10:19.996Z,6.90
2022-11-25T11:13:01.440Z,5.70
2022-11-25T11:18:16.001Z,6.50
2022-11-25T11:20:51.450Z,7.10
2022-11-25T11:23:22.205Z,6.90
2022-11-25T11:26:01.543Z,23.70
2022-11-25T11:28:41.325Z,10.40
2022-11-25T11:31:20.944Z,7.80
2022-11-25T11:33:58.883Z,7.90
2022-11-25T11:36:42.798Z,8.90
2022-11-25T11:39:29.906Z,8.50
2022-11-25T11:42:10.626Z,8.80
2022-11-25T11:44:55.877Z,8.20
2022-11-25T11:47:37.199Z,8.10
2022-11-25T11:50:24.614Z,7.80
2022-11-25T11:53:03.500Z,8.60
2022-11-25T11:56:00.288Z,7.70
2022-11-25T11:58:58.490Z,8.70
2022-11-25T12:01:41.799Z,8.50
2022-11-25T12:04:22.426Z,7.50
2022-11-25T12:07:04.249Z,8.70
2022-11-25T12:09:40.525Z,7.30
2022-11-25T12:12:19.081Z,7.00
2022-11-25T12:14:52.828Z,7.20
2022-11-25T12:17:28.676Z,8.40
2022-11-25T12:20:04.710Z,7.10
2022-11-25T12:22:42.044Z,8.10
2022-11-25T12:25:20.010Z,8.30
2022-11-25T12:27:55.709Z,7.90
2022-11-25T12:30:30.795Z,7.80
2022-11-25T12:33:08.005Z,9.20
2022-11-25T12:35:47.606Z,8.00
2022-11-25T12:38:31.586Z,8.90
2022-11-25T12:41:13.600Z,7.30
2022-11-25T12:43:48.543Z,7.50
2022-11-25T12:46:36.176Z,7.90
2022-11-25T12:49:15.212Z,9.00
2022-11-25T12:52:12.129Z,7.70
2022-11-25T12:55:04.049Z,9.70
2022-11-25T12:58:12.798Z,8.20
2022-11-25T13:01:25.949Z,8.70
2022-11-25T13:04:25.622Z,8.20
2022-11-25T13:07:26.292Z,8.90
2022-11-25T13:10:25.182Z,9.00
2022-11-25T13:13:08.490Z,9.30
2022-11-25T13:15:43.568Z,8.00
2022-11-25T13:18:17.880Z,9.20
2022-11-25T13:20:53.820Z,7.70
2022-11-25T13:23:32.938Z,8.40
2022-11-25T13:26:37.799Z,8.00
2022-11-25T13:29:56.194Z,7.60
2022-11-25T13:32:36.609Z,8.80
2022-11-25T13:35:41.335Z,8.80
2022-11-25T13:38:49.033Z,8.50
2022-11-25T13:41:35.658Z,8.80
2022-11-25T13:44:16.510Z,10.70
2022-11-25T13:46:49.685Z,11.00
2022-11-25T13:49:34.533Z,11.50
2022-11-25T13:52:23.341Z,10.80
2022-11-25T13:54:58.405Z,9.70
2022-11-25T13:57:31.455Z,8.30
2022-11-25T14:00:05.425Z,10.50
2022-11-25T14:02:46.693Z,8.80
2022-11-25T14:05:55.151Z,8.60
2022-11-25T14:08:38.138Z,8.80
2022-11-25T14:11:36.791Z,7.90
2022-11-25T14:14:28.879Z,8.30
2022-11-25T14:17:21.926Z,7.80
2022-11-25T14:20:07.845Z,9.50
2022-11-25T14:23:01.326Z,8.60
2022-11-25T14:25:44.176Z,8.30
2022-11-25T14:28:28.195Z,8.30
2022-11-25T14:31:08.284Z,8.50
2022-11-25T14:33:45.852Z,8.70
2022-11-25T14:36:20.933Z,8.70
2022-11-25T14:38:59.652Z,9.40
2022-11-25T14:41:34.687Z,7.20
2022-11-25T14:44:12.623Z,8.10
2022-11-25T14:46:56.058Z,9.30
2022-11-25T14:49:49.123Z,13.50
2022-11-25T14:52:29.431Z,8.70
2022-11-25T14:55:01.861Z,8.40
2022-11-25T14:57:37.047Z,8.90
2022-11-25T15:00:11.034Z,7.80
2022-11-25T15:02:54.470Z,8.40
2022-11-25T15:05:27.331Z,8.60
2022-11-25T15:08:02.286Z,7.60
2022-11-25T15:10:37.515Z,7.80
2022-11-25T15:13:14.435Z,7.80
2022-11-25T15:15:48.632Z,8.60
2022-11-25T15:18:23.321Z,8.50
2022-11-25T15:20:59.407Z,8.90
2022-11-25T15:23:34.558Z,7.80
2022-11-25T15:26:16.360Z,7.50
2022-11-25T15:28:47.041Z,7.90
2022-11-25T15:31:22.056Z,9.50
2022-11-25T15:33:57.858Z,9.10
2022-11-25T15:36:28.708Z,9.50
2022-11-25T15:39:16.771Z,9.10
2022-11-25T15:41:48.775Z,8.20
2022-11-25T15:44:24.598Z,8.60
2022-11-25T15:47:00.489Z,8.80
2022-11-25T15:49:31.048Z,8.10
2022-11-25T15:52:05.393Z,7.80
2022-11-25T15:54:43.842Z,7.50
2022-11-25T15:57:23.009Z,6.50
2022-11-25T16:00:14.369Z,7.80
2022-11-25T16:02:55.620Z,9.00
2022-11-25T16:05:35.582Z,10.00
2022-11-25T16:08:25.326Z,11.60
2022-11-25T16:10:59.424Z,10.00
2022-11-25T16:13:40.221Z,10.20
2022-11-25T16:16:22.916Z,9.10
2022-11-25T16:19:17.537Z,10.10
2022-11-25T16:21:53.336Z,9.20
2022-11-25T16:24:32.797Z,9.20
2022-11-25T16:27:05.542Z,8.50
2022-11-25T16:29:38.148Z,8.30
2022-11-25T16:32:16.587Z,8.60
2022-11-25T16:34:47.650Z,8.60
2022-11-25T16:37:18.380Z,11.30
2022-11-25T16:39:49.028Z,8.60
2022-11-25T16:42:22.761Z,10.30
2022-11-25T16:44:54.335Z,10.60
2022-11-25T16:47:26.809Z,10.00
2022-11-25T16:49:57.809Z,9.40
2022-11-25T16:52:28.332Z,10.00
2022-11-25T16:54:58.755Z,7.80
2022-11-25T16:57:29.545Z,9.40
2022-11-25T17:00:03.332Z,8.30
2022-11-25T17:02:34.111Z,8.20
2022-11-25T17:05:18.576Z,7.60
2022-11-25T17:07:50.956Z,7.10
2022-11-25T17:10:22.373Z,7.80
2022-11-25T17:12:53.127Z,7.70
2022-11-25T17:15:35.886Z,7.60
2022-11-25T17:18:08.644Z,8.20
2022-11-25T17:20:39.144Z,8.50
2022-11-25T17:23:17.300Z,8.10
2022-11-25T17:25:51.040Z,7.80
2022-11-25T17:28:22.714Z,7.40
2022-11-25T17:30:53.277Z,8.80
2022-11-25T17:33:25.528Z,9.00
2022-11-25T17:35:56.185Z,8.50
2022-11-25T17:38:26.872Z,9.70
2022-11-25T17:40:57.375Z,10.50
2022-11-25T17:43:33.177Z,11.90
2022-11-25T17:46:10.119Z,10.60
2022-11-25T17:48:42.299Z,10.70
2022-11-25T17:51:13.729Z,9.60
2022-11-25T17:56:23.921Z,10.50
2022-11-25T17:58:55.128Z,11.10
2022-11-25T18:01:25.848Z,11.00
2022-11-25T18:03:57.968Z,11.20
2022-11-25T18:06:28.826Z,11.00
2022-11-25T18:08:59.768Z,11.30
2022-11-25T18:11:32.424Z,11.50
2022-11-25T18:14:03.144Z,10.40
2022-11-25T18:16:35.361Z,10.20
2022-11-25T18:19:06.031Z,11.60
2022-11-25T18:21:37.326Z,11.30
2022-11-25T18:24:08.391Z,11.30
2022-11-25T18:26:44.672Z,11.40
2022-11-25T18:29:22.498Z,11.10
2022-11-25T18:31:53.553Z,11.50
2022-11-25T18:34:25.118Z,11.70
2022-11-25T18:36:56.119Z,11.20
2022-11-25T18:39:26.800Z,11.70
2022-11-25T18:41:59.999Z,11.20
2022-11-25T18:44:31.393Z,10.90
2022-11-25T18:47:01.946Z,11.00
2022-11-25T18:49:32.389Z,11.70
2022-11-25T18:52:02.822Z,12.80
2022-11-25T18:54:33.469Z,13.00
2022-11-25T18:57:04.903Z,13.10
2022-11-25T19:02:11.409Z,12.20
2022-11-25T19:04:42.119Z,12.90
2022-11-25T19:07:12.693Z,14.00
2022-11-25T19:09:43.226Z,13.60
2022-11-25T19:12:21.282Z,11.70
2022-11-25T19:14:52.639Z,14.40
2022-11-25T19:17:26.093Z,15.00
2022-11-25T19:19:56.672Z,13.00
2022-11-25T19:22:27.080Z,13.90
2022-11-25T19:24:59.037Z,14.30
2022-11-25T19:27:29.670Z,13.90
2022-11-25T19:30:00.285Z,14.40
2022-11-25T19:32:32.342Z,18.00
2022-11-25T19:35:08.674Z,15.70
2022-11-25T19:37:39.196Z,15.40
2022-11-25T19:40:17.318Z,16.70
2022-11-25T19:42:48.392Z,14.90
2022-11-25T19:45:21.376Z,15.60
2022-11-25T19:47:53.340Z,15.70
2022-11-25T19:50:27.089Z,12.60
2022-11-25T19:52:57.794Z,12.60
2022-11-25T19:55:29.927Z,13.20
2022-11-25T19:58:00.728Z,25.50
2022-11-25T20:00:31.202Z,15.30
2022-11-25T20:03:02.155Z,13.60
2022-11-25T20:05:36.559Z,14.00
2022-11-25T20:08:07.526Z,13.20
2022-11-25T20:10:38.435Z,12.00
2022-11-25T20:13:10.903Z,12.10
2022-11-25T20:15:42.320Z,13.00
2022-11-25T20:18:20.409Z,11.70
2022-11-25T20:20:57.330Z,16.50
2022-11-25T20:23:30.953Z,15.10
2022-11-25T20:26:02.014Z,16.40
2022-11-25T20:28:35.432Z,24.60
2022-11-25T20:31:06.092Z,19.50
2022-11-25T20:33:36.674Z,17.50
2022-11-25T20:36:14.006Z,15.90
2022-11-25T20:38:47.411Z,13.70
2022-11-25T20:41:22.902Z,13.00
2022-11-25T20:43:58.355Z,15.20
2022-11-25T20:46:30.676Z,14.80
2022-11-25T20:49:03.711Z,15.60
2022-11-25T20:51:34.616Z,22.50
2022-11-25T20:54:09.120Z,16.40
2022-11-25T20:56:40.007Z,14.70
2022-11-25T20:59:22.006Z,14.50
2022-11-25T21:01:54.541Z,13.50
2022-11-25T21:04:25.402Z,14.30
2022-11-25T21:06:56.616Z,14.50
2022-11-25T21:09:32.945Z,11.80
2022-11-25T21:12:04.084Z,14.10
2022-11-25T21:14:34.822Z,15.40
2022-11-25T21:17:06.130Z,14.20
2022-11-25T21:19:37.163Z,12.60
2022-11-25T21:22:08.584Z,13.50
2022-11-25T21:27:15.711Z,14.40
2022-11-25T21:29:47.738Z,15.20
2022-11-25T21:32:23.069Z,16.60
2022-11-25T21:34:53.876Z,14.60
2022-11-25T21:37:32.073Z,14.60
2022-11-25T21:40:03.139Z,15.80
2022-11-25T21:42:34.092Z,16.60
2022-11-25T21:45:04.949Z,17.10
2022-11-25T21:47:35.831Z,15.60
2022-11-25T21:50:14.673Z,15.60
2022-11-25T21:52:45.309Z,14.30
2022-11-25T21:55:17.301Z,14.80
2022-11-25T21:57:47.804Z,16.70
2022-11-25T22:00:25.238Z,15.40
2022-11-25T22:02:56.364Z,17.70
2022-11-25T22:05:26.920Z,15.50
2022-11-25T22:07:57.525Z,14.90
2022-11-25T22:10:28.423Z,12.60
2022-11-25T22:12:59.019Z,14.70
2022-11-25T22:15:29.695Z,13.40
2022-11-25T22:18:01.279Z,11.00
2022-11-25T22:20:34.305Z,12.60
2022-11-25T22:23:14.593Z,11.90
2022-11-25T22:25:45.954Z,12.80
2022-11-25T22:30:50.681Z,10.60
2022-11-25T22:33:22.491Z,12.20
2022-11-25T22:35:52.890Z,11.70
2022-11-25T22:38:23.788Z,12.10
2022-11-25T22:40:57.740Z,12.00
2022-11-25T22:43:32.860Z,12.70
2022-11-25T22:46:04.243Z,12.90
2022-11-25T22:51:06.025Z,14.10
2022-11-25T22:53:36.535Z,14.20
2022-11-25T22:56:14.410Z,13.30
2022-11-25T22:58:47.316Z,14.00
2022-11-25T23:01:19.219Z,11.20
2022-11-25T23:03:49.848Z,12.10
2022-11-25T23:06:20.364Z,11.30
2022-11-25T23:08:51.037Z,11.10
2022-11-25T23:11:22.889Z,11.50
2022-11-25T23:13:53.790Z,11.60
2022-11-25T23:16:24.246Z,10.50
2022-11-25T23:18:54.772Z,13.40
2022-11-25T23:21:28.997Z,11.90
2022-11-25T23:23:59.660Z,12.40
2022-11-25T23:26:35.029Z,10.80
2022-11-25T23:29:05.855Z,10.90
2022-11-25T23:31:38.338Z,10.60
2022-11-25T23:34:13.494Z,11.40
2022-11-25T23:36:47.327Z,12.10
2022-11-25T23:39:23.718Z,12.20
2022-11-25T23:41:55.758Z,11.10
2022-11-25T23:44:28.766Z,10.60
2022-11-25T23:47:01.813Z,10.70
2022-11-25T23:49:37.381Z,11.90
2022-11-25T23:52:09.410Z,10.50
2022-11-25T23:54:42.500Z,10.90
2022-11-25T23:57:17.048Z,11.20
2022-11-25T23:59:48.638Z,10.50
